Overview Statistics Trail Chart Weather Telemetry Raw packets
 

This is the latest recevied weather packets stored in our database for station/object R8AHC-W1. If no packets are shown the sender has not sent any weather packets the latest 10 day(s).

<< 1 2 3 4 5 >>
Time Temp. Humidity Pressure Rain* Wind** Luminosity Snow
1777657022 7.22° C 81% 1014 hPa - 0 m/s - -
1777653422 6.67° C 81% 1014 hPa - 3.13 m/s, 340° - -
1777646222 8.33° C 76% 1013 hPa - 4.02 m/s, 320° - -
1777639023 10.56° C 66% 1012 hPa - 5.81 m/s, 280° - -
1777631822 8.89° C 76% 1012 hPa - 3.13 m/s, 270° - -
1777628222 8.33° C 76% 1012 hPa - 3.13 m/s, 260° - -
1777621022 7.22° C 87% 1011 hPa - 4.02 m/s, 340° - -
1777610222 6.11° C 100% 1011 hPa - 7.15 m/s, 360° - -
1777606622 5.56° C 100% 1011 hPa - 8.05 m/s, 360° - -
1777599422 6.11° C 100% 1011 hPa - 8.94 m/s, 360° - -
1777595822 5.56° C 100% 1011 hPa - 7.15 m/s, 360° - -
1777581422 6.11° C 100% 1012 hPa - 8.05 m/s, 360° - -
1777577821 5.56° C 100% 1013 hPa - 7.15 m/s, 360° - -
1777559822 7.78° C 100% 1016 hPa - 4.92 m/s, 30° - -
1777556222 7.22° C 100% 1017 hPa - 4.02 m/s, 20° - -
1777549022 7.22° C 93% 1018 hPa - 3.13 m/s, 130° - -
1777523822 9.44° C 46% 1021 hPa - 3.13 m/s, 20° - -
1777498622 3.89° C 52% 1022 hPa - 0 m/s - -
1777495022 3.33° C 52% 1022 hPa - 0.89 m/s, 320° - -
1777487822 4.44° C 48% 1021 hPa - 0.89 m/s, 320° - -
1777469822 14.44° C 23% 1020 hPa - 4.92 m/s, 260° - -
1777462623 13.89° C 26% 1019 hPa - 4.92 m/s, 260° - -
1777459022 13.33° C 26% 1019 hPa - 4.92 m/s, 270° - -
1777448222 11.11° C 29% 1020 hPa - 7.15 m/s, 240° - -
1777444622 10.56° C 29% 1020 hPa - 4.92 m/s, 220° - -

* Rain since midnight (hover to see other rain measurements)
** Current wind speed in m/s (hover to see current wind gust speed)